Flight Track Log - Related Links

Times and Time Zones

All times are in EDT time to prevent confusion due to time zone crossing. See the SWA2353 flight status page for this flight to view local times or setup timezone preferences in your user account.

Time Position Orientation Groundspeed Altitude Reporting Facility
EDT Latitude Longitude Course Direction KTS MPH feet Rate Location/Type
Fri 04:17:00 PM 35.9127 -115.2768 161° South  Level FlightAware Approximate
Fri 04:18:00 PM 35.8373 -115.1801 103° East  Level FlightAware Approximate
Fri 04:19:00 PM 35.8200 -115.0298 84° East  Level FlightAware Approximate
Fri 04:20:00 PM 35.8333 -114.8773 90° East  Level FlightAware Approximate
Fri 04:21:00 PM 35.8475 -114.7250 83° East  Level FlightAware Approximate
Fri 04:22:00 PM 35.8628 -114.5727 83° East  Level FlightAware Approximate
Fri 04:23:00 PM 35.8698 -114.4197 85° East  Level FlightAware Approximate
Fri 04:24:00 PM 35.8800 -114.2667 85° East  Level FlightAware Approximate
Fri 04:25:00 PM 35.9000 -114.1155 90° East  Level FlightAware Approximate
Fri 04:26:00 PM 35.9167 -113.9640 90° East  Level FlightAware Approximate
Fri 04:27:00 PM 35.9013 -113.8125 102° East  Level FlightAware Approximate
Fri 04:28:00 PM 35.8748 -113.6625 102° East  Level FlightAware Approximate
Fri 04:29:00 PM 35.8338 -113.5182 112° Southeast  Level FlightAware Approximate
Fri 04:30:00 PM 35.8019 -113.3699 105° East  Level FlightAware Approximate
Fri 04:31:00 PM 35.7712 -113.2214 104° East  Level FlightAware Approximate
Fri 04:32:00 PM 35.7419 -113.0725 104° East  Level FlightAware Approximate
Fri 04:33:00 PM 35.7123 -112.9237 104° East  Level FlightAware Approximate
Fri 04:34:00 PM 35.6826 -112.7749 104° East  Level FlightAware Approximate
Fri 04:35:00 PM 35.6551 -112.6381 104° East  Level FlightAware Approximate
Fri 04:36:00 PM 35.6274 -112.5013 104° East  Level FlightAware Approximate
Fri 04:37:00 PM 35.5993 -112.3648 115° Southeast  Level FlightAware Approximate
Fri 04:38:00 PM 35.5515 -112.2368 115° Southeast  Level FlightAware Approximate
Fri 04:39:00 PM 35.5036 -112.1090 115° Southeast  Level FlightAware Approximate
Fri 04:40:00 PM 35.4555 -111.9813 115° Southeast  Level FlightAware Approximate
Fri 04:41:00 PM 35.4117 -111.8514 112° Southeast  Level FlightAware Approximate
Fri 04:42:00 PM 35.3684 -111.7214 112° Southeast  Level FlightAware Approximate
Fri 04:43:00 PM 35.3249 -111.5915 112° Southeast  Level FlightAware Approximate
Fri 04:44:00 PM 35.2812 -111.4618 112° Southeast  Level FlightAware Approximate
Fri 04:45:00 PM 35.2374 -111.3321 112° Southeast  Level FlightAware Approximate
Fri 04:46:00 PM 35.1935 -111.2027 113° Southeast  Level FlightAware Approximate
Fri 04:47:00 PM 35.1495 -111.0733 113° Southeast  Level FlightAware Approximate
Fri 04:48:00 PM 35.1053 -110.9441 113° Southeast  Level FlightAware Approximate
Fri 04:49:00 PM 35.0609 -110.8151 113° Southeast  Level FlightAware Approximate
Fri 04:50:00 PM 34.9966 -110.7005 128° Southeast  Level FlightAware Approximate
Fri 04:51:00 PM 34.9256 -110.5908 128° Southeast  Level FlightAware Approximate
Fri 04:51:12 PM 36.0753 -115.1153 129° Southeast 155 178 3,300  Level Los Angeles Center
Fri 04:52:00 PM 34.8538 -110.4820 131° Southeast  Level FlightAware Approximate
Fri 04:52:01 PM 36.0756 -115.0567 90° East 228 262 4,100  Level Los Angeles Center
Fri 04:53:00 PM 34.7788 -110.3766 129° Southeast  Level FlightAware Approximate
Fri 04:53:02 PM 36.0744 -114.9719 91° East 246 283 6,500  Level Los Angeles Center
Fri 04:54:00 PM 34.7063 -110.2687 129° Southeast  Level FlightAware Approximate
Fri 04:54:02 PM 36.0653 -114.8817 97° East 269 310 8,800  Level Los Angeles Center
Fri 04:54:13 PM 36.0647 -114.8725 94° East 268 308 9,100 1,562 Climbing Los Angeles Center
Fri 04:55:00 PM 34.6337 -110.1610 129° Southeast  Level FlightAware Approximate
Fri 04:55:15 PM 36.0500 -114.7747 101° East 289 333 10,700  Level Los Angeles Center
Fri 04:56:00 PM 34.5610 -110.0535 129° Southeast  Level FlightAware Approximate
Fri 04:56:17 PM 36.0344 -114.6642 100° East 322 371 13,100  Level Los Angeles Center
Fri 04:57:19 PM 36.0139 -114.5167 100° East 365 420 15,400 2,129 Climbing Los Angeles Center
Fri 04:58:21 PM 35.9950 -114.3875 100° East 379 436 17,500 1,968 Climbing Los Angeles Center
Fri 04:59:24 PM 35.9744 -114.2517 101° East 401 461 19,500 1,872 Climbing Los Angeles Center
Fri 05:00:26 PM 35.9444 -114.1150 105° East 419 482 21,400 1,790 Climbing Los Angeles Center
Fri 05:01:28 PM 35.8847 -113.9869 120° Southeast 425 489 23,200 1,597 Climbing Los Angeles Center
Fri 05:02:30 PM 35.8244 -113.8575 120° Southeast 433 498 24,700 1,548 Climbing Los Angeles Center
Fri 05:03:32 PM 35.7464 -113.6972 121° Southeast 450 518 26,400 1,392 Climbing Los Angeles Center
Fri 05:05:31 PM 35.6242 -113.4406 120° Southeast 466 536 28,900 1,251 Climbing Albuquerque Center
Fri 05:06:39 PM 35.5433 -113.2725 121° Southeast 476 548 30,300 1,292 Climbing Los Angeles Center
Fri 05:07:41 PM 35.4797 -113.1408 121° Southeast 478 550 31,700 1,210 Climbing Los Angeles Center
Fri 05:08:43 PM 35.4131 -113.0008 120° Southeast 477 549 32,800 974 Climbing Los Angeles Center
Fri 05:09:38 PM 35.3481 -112.8664 121° Southeast 488 562 33,600 983 Climbing Albuquerque Center
Fri 05:10:39 PM 35.2789 -112.7258 121° Southeast 488 562 34,700 1,237 Climbing Albuquerque Center
Fri 05:11:49 PM 35.1956 -112.5575 121° Southeast 487 560 36,300 1,065 Climbing Los Angeles Center
Fri 05:12:43 PM 35.1278 -112.4231 122° Southeast 470 541 36,900 362 Climbing Albuquerque Center
Fri 05:13:45 PM 35.0594 -112.2872 122° Southeast 470 541 37,000 49 Climbing Albuquerque Center
Fri 05:14:46 PM 34.9911 -112.1500 121° Southeast 470 541 37,000  Level Albuquerque Center
Fri 05:15:48 PM 34.9225 -112.0119 121° Southeast 473 544 37,000  Level Albuquerque Center
Fri 05:16:50 PM 34.8531 -111.8736 121° Southeast 476 548 37,000  Level Albuquerque Center
Fri 05:17:52 PM 34.7844 -111.7344 121° Southeast 477 549 37,000  Level Albuquerque Center
Fri 05:18:53 PM 34.7142 -111.5978 122° Southeast 477 549 37,000  Level Albuquerque Center
Fri 05:19:55 PM 34.6300 -111.4328 122° Southeast 477 549 37,000  Level Albuquerque Center
Fri 05:20:57 PM 34.5603 -111.2956 122° Southeast 477 549 37,000  Level Albuquerque Center
Fri 05:21:58 PM 34.4914 -111.1575 121° Southeast 477 549 37,000  Level Albuquerque Center
Fri 05:23:00 PM 34.4214 -111.0214 122° Southeast 477 549 37,000  Level Albuquerque Center
Fri 05:24:02 PM 34.3503 -110.8850 122° Southeast 477 549 37,000  Level Albuquerque Center
Fri 05:25:04 PM 34.2789 -110.7486 122° Southeast 477 549 37,000  Level Albuquerque Center
Fri 05:26:05 PM 34.2047 -110.6028 122° Southeast 478 550 37,000  Level Albuquerque Center
Fri 05:27:07 PM 34.1328 -110.4667 123° Southeast 478 550 37,000  Level Albuquerque Center
Fri 05:28:09 PM 34.0614 -110.3275 122° Southeast 482 555 37,000  Level Albuquerque Center
Fri 05:29:11 PM 33.9889 -110.1925 123° Southeast 484 557 37,000  Level Albuquerque Center
Fri 05:30:12 PM 33.9014 -110.0269 122° Southeast 485 558 37,000  Level Albuquerque Center
Fri 05:31:14 PM 33.8283 -109.8886 122° Southeast 485 558 37,000  Level Albuquerque Center
Fri 05:32:16 PM 33.7558 -109.7514 122° Southeast 486 559 37,000  Level Albuquerque Center
Fri 05:33:18 PM 33.6833 -109.6111 122° Southeast 491 565 37,000  Level Albuquerque Center
Fri 05:34:19 PM 33.6100 -109.4742 123° Southeast 491 565 37,000  Level Albuquerque Center
Fri 05:35:21 PM 33.5361 -109.3381 123° Southeast 490 564 37,000  Level Albuquerque Center
Fri 05:36:23 PM 33.4619 -109.2014 123° Southeast 490 564 37,000  Level Albuquerque Center
Fri 05:37:25 PM 33.3881 -109.0661 123° Southeast 487 560 37,000  Level Albuquerque Center
Fri 05:38:26 PM 33.2994 -108.9011 123° Southeast 487 560 37,000  Level Albuquerque Center
Fri 05:39:28 PM 33.2242 -108.7644 123° Southeast 487 560 37,000  Level Albuquerque Center
Fri 05:40:30 PM 33.1492 -108.6289 123° Southeast 487 560 37,000  Level Albuquerque Center
Fri 05:41:31 PM 33.0750 -108.4942 123° Southeast 486 559 37,000  Level Albuquerque Center
Fri 05:42:33 PM 33.0014 -108.3619 124° Southeast 483 556 37,000  Level Albuquerque Center
Fri 05:43:35 PM 32.9267 -108.2311 124° Southeast 481 554 37,000  Level Albuquerque Center
Fri 05:44:37 PM 32.8497 -108.0936 124° Southeast 481 554 37,000  Level Albuquerque Center
Fri 05:45:38 PM 32.7761 -107.9628 124° Southeast 481 554 37,000  Level Albuquerque Center
Fri 05:46:40 PM 32.7050 -107.8358 124° Southeast 480 552 37,000  Level Albuquerque Center
Fri 05:47:42 PM 32.6294 -107.7022 124° Southeast 476 548 37,000  Level Albuquerque Center
Fri 05:48:44 PM 32.5422 -107.5478 124° Southeast 476 548 37,000  Level Albuquerque Center
Fri 05:50:47 PM 32.3967 -107.2911 124° Southeast 476 548 37,000  Level Albuquerque Center
Fri 05:51:49 PM 32.3214 -107.1494 122° Southeast 474 545 37,000  Level Albuquerque Center
Fri 05:52:51 PM 32.2406 -107.0108 125° Southeast 474 545 37,000  Level Albuquerque Center
Fri 05:53:53 PM 32.1642 -106.8853 126° Southeast 476 548 37,000  Level Albuquerque Center
Fri 05:54:54 PM 32.0678 -106.7828 138° Southeast 468 539 37,000  Level Albuquerque Center
Fri 05:55:56 PM 31.9683 -106.6819 139° Southeast 468 539 37,000  Level Albuquerque Center
Fri 05:56:58 PM 31.8689 -106.5819 139° Southeast 469 540 37,000  Level Albuquerque Center
Fri 05:58:00 PM 31.7575 -106.4697 139° Southeast 476 548 37,000  Level Albuquerque Center
Fri 05:59:02 PM 31.6525 -106.3817 144° Southeast 470 541 37,000  Level Albuquerque Center
Fri 06:00:04 PM 31.5469 -106.2925 144° Southeast 469 540 37,000  Level Albuquerque Center
Fri 06:01:05 PM 31.4450 -106.2025 143° Southeast 464 534 37,000  Level Albuquerque Center
Fri 06:02:07 PM 31.3422 -106.1117 143° Southeast 464 534 37,000  Level Albuquerque Center
Fri 06:03:09 PM 31.2086 -106.0225 150° Southeast 462 532 37,000  Level Albuquerque Center
Fri 06:04:11 PM 31.0944 -105.9544 153° Southeast 462 532 37,000  Level Albuquerque Center
Fri 06:05:13 PM 30.9786 -105.8867 153° Southeast 463 533 37,000  Level Albuquerque Center
Fri 06:06:15 PM 30.8669 -105.8111 150° Southeast 465 535 37,000  Level Albuquerque Center
Fri 06:07:17 PM 30.7589 -105.7275 146° Southeast 465 535 37,000  Level Albuquerque Center
Fri 06:08:19 PM 30.6417 -105.6114 140° Southeast 465 535 37,000  Level Albuquerque Center
Fri 06:09:21 PM 30.5569 -105.4978 131° Southeast 469 540 37,000  Level Albuquerque Center
Fri 06:10:23 PM 30.4894 -105.3722 122° Southeast 466 536 37,000  Level Albuquerque Center
Fri 06:11:25 PM 30.4681 -105.2261 100° East 472 543 37,000  Level Albuquerque Center
Fri 06:12:26 PM 30.4861 -105.0792 82° East 471 542 37,000  Level Albuquerque Center
Fri 06:13:28 PM 30.5197 -104.9078 77° East 465 535 37,000  Level Albuquerque Center
Fri 06:14:30 PM 30.5372 -104.7625 82° East 462 532 37,000  Level Albuquerque Center
Fri 06:15:32 PM 30.5422 -104.6150 88° East 463 533 37,000  Level Albuquerque Center
Fri 06:16:34 PM 30.5533 -104.4675 85° East 463 533 37,000  Level Albuquerque Center
Fri 06:17:36 PM 30.5628 -104.3217 86° East 462 532 37,000  Level Albuquerque Center
Fri 06:18:38 PM 30.5703 -104.1742 87° East 461 531 37,000  Level Albuquerque Center
Fri 06:19:40 PM 30.5817 -103.9989 86° East 460 529 37,000  Level Albuquerque Center
Fri 06:20:42 PM 30.5900 -103.8506 86° East 460 529 37,000  Level Albuquerque Center
Fri 06:21:44 PM 30.6003 -103.6886 86° East 460 529 37,000  Level Albuquerque Center
Fri 06:22:46 PM 30.6083 -103.5392 86° East 460 529 37,000  Level Albuquerque Center
Fri 06:23:47 PM 30.6169 -103.3911 86° East 460 529 37,000  Level Albuquerque Center
Fri 06:24:49 PM 30.6256 -103.2433 86° East 462 532 37,000  Level Albuquerque Center
Fri 06:25:51 PM 30.6328 -103.0953 87° East 462 532 37,000  Level Albuquerque Center
Fri 06:26:53 PM 30.6419 -102.9483 86° East 461 531 37,000  Level Albuquerque Center
Fri 06:27:55 PM 30.6525 -102.7747 86° East 458 527 37,000  Level Albuquerque Center
Fri 06:28:57 PM 30.6592 -102.6300 87° East 455 524 37,000  Level Albuquerque Center
Fri 06:29:59 PM 30.6661 -102.4869 87° East 451 519 37,000  Level Albuquerque Center
Fri 06:31:01 PM 30.6731 -102.3419 87° East 452 520 37,000  Level Albuquerque Center
Fri 06:32:03 PM 30.6797 -102.1989 87° East 451 519 37,000  Level Albuquerque Center
Fri 06:33:05 PM 30.6533 -102.0306 100° East 451 519 37,000  Level Albuquerque Center
Fri 06:34:07 PM 30.6158 -101.8933 108° East 450 518 37,000  Level Albuquerque Center
Fri 06:35:25 PM 30.5725 -101.7264 107° East 451 519 37,000  Level Houston Center
Fri 06:36:27 PM 30.5303 -101.5731 108° East 452 520 37,000  Level Houston Center
Fri 06:37:29 PM 30.4933 -101.4333 107° East 452 520 37,000  Level Houston Center
Fri 06:38:31 PM 30.4558 -101.2958 108° East 451 519 37,000  Level Houston Center
Fri 06:39:33 PM 30.4172 -101.1575 108° East 451 519 37,000  Level Houston Center
Fri 06:40:35 PM 30.3714 -100.9925 108° East 451 519 37,000  Level Houston Center
Fri 06:41:37 PM 30.3347 -100.8539 107° East 451 519 37,000  Level Houston Center
Fri 06:42:40 PM 30.2956 -100.7175 108° East 450 518 37,000  Level Houston Center
Fri 06:43:42 PM 30.2583 -100.5817 108° East 444 511 37,000  Level Houston Center
Fri 06:44:44 PM 30.2208 -100.4456 108° East 444 511 37,000  Level Houston Center
Fri 06:45:46 PM 30.1828 -100.3081 108° East 444 511 37,000  Level Houston Center
Fri 06:46:48 PM 30.1447 -100.1672 107° East 444 511 37,000  Level Houston Center
Fri 06:47:50 PM 30.1050 -100.0289 108° East 446 513 37,000  Level Houston Center
Fri 06:48:52 PM 30.0569 -99.8686 109° East 443 510 37,000  Level Houston Center
Fri 06:49:55 PM 30.0181 -99.7336 108° East 442 509 37,000  Level Houston Center
Fri 06:50:57 PM 29.9800 -99.6011 108° East 439 505 37,000  Level Houston Center
Fri 06:51:59 PM 29.9417 -99.4689 108° East 438 504 37,000  Level Houston Center
Fri 06:53:01 PM 29.9028 -99.3375 109° East 435 501 37,000  Level Houston Center
Fri 06:54:04 PM 29.8575 -99.1786 108° East 435 501 37,000  Level Houston Center
Fri 06:55:06 PM 29.8186 -99.0444 108° East 434 499 37,000  Level Houston Center
Fri 06:56:08 PM 29.7786 -98.9122 109° East 436 502 37,000  Level Houston Center
Fri 06:57:10 PM 29.7358 -98.7708 109° East 436 502 37,000  Level Houston Center
Fri 06:58:12 PM 29.6978 -98.6400 108° East 434 499 37,000  Level Houston Center
Fri 06:59:14 PM 29.6625 -98.4978 106° East 435 501 37,000  Level Houston Center
Fri 07:00:16 PM 29.6419 -98.3536 99° East 450 518 37,000  Level Houston Center
Fri 07:01:18 PM 29.6186 -98.2206 101° East 429 494 37,000  Level Houston Center
Fri 07:02:21 PM 29.5975 -98.0758 99° East 426 490 37,000  Level Houston Center
Fri 07:03:23 PM 29.5772 -97.9431 100° East 426 490 37,000 -387 Level Houston Center
Fri 07:04:25 PM 29.5589 -97.8200 100° East 426 490 36,200 -1,452 Descending Houston Center
Fri 07:05:27 PM 29.5403 -97.6872 99° East 425 489 34,000 -2,274 Descending Houston Center
Fri 07:06:29 PM 29.5203 -97.5306 98° East 420 483 31,500 -2,129 Descending Houston Center
Fri 07:07:31 PM 29.5039 -97.4044 98° East 406 467 29,600 -1,790 Descending Houston Center
Fri 07:08:33 PM 29.4872 -97.2778 99° East 401 461 27,800 -1,920 Descending Houston Center
Fri 07:09:36 PM 29.4686 -97.1372 99° East 439 505 25,600 -2,016 Descending Houston Center
Fri 07:10:38 PM 29.4500 -96.9989 99° East 441 507 23,600 -1,935 Descending Houston Center
Fri 07:11:40 PM 29.4342 -96.8664 98° East 413 475 21,600 -1,887 Descending Houston Center
Fri 07:12:42 PM 29.4161 -96.7367 99° East 404 465 19,700 -1,790 Descending Houston Center
Fri 07:13:44 PM 29.3986 -96.6186 100° East 377 434 17,900 -1,887 Descending Houston Center
Fri 07:14:46 PM 29.3800 -96.4825 99° East 363 418 15,800 -1,870 Descending Houston Center
Fri 07:15:01 PM 29.3753 -96.4611 104° East 358 412 15,500 -1,645 Descending Houston Center
Fri 07:15:48 PM 29.3653 -96.3739 97° East 350 403 14,100 -1,791 Descending Houston Center
Fri 07:16:08 PM 29.3583 -96.3336 101° East 345 397 13,500 -1,524 Descending Houston Center
Fri 07:16:51 PM 29.3500 -96.2681 98° East 341 392 12,500 -1,574 Descending Houston Center
Fri 07:17:09 PM 29.3433 -96.2300 101° East 330 380 11,900 -1,574 Descending Houston Center
Fri 07:17:52 PM 29.3361 -96.1667 97° East 330 380 10,900 -1,574 Descending Houston Center
Fri 07:18:10 PM 29.3300 -96.1236 99° East 321 369 10,300 -871 Descending Houston Center
Fri 07:18:54 PM 29.3386 -96.0694 80° East 323 372 10,000 -269 Descending Houston Center
Fri 07:19:17 PM 29.3639 -96.0314 53° Northeast 285 328 10,000  Level Houston Center
Fri 07:19:56 PM 29.3883 -95.9978 50° Northeast 294 338 10,000  Level Houston Center
Fri 07:20:18 PM 29.4142 -95.9583 53° Northeast 293 337 10,000 -286 Level Houston Center
Fri 07:20:59 PM 29.4489 -95.9089 51° Northeast 292 336 9,700 -643 Descending Houston Center
Fri 07:21:14 PM 29.4608 -95.8908 53° Northeast 293 337 9,400 -968 Descending Houston Center
Fri 07:22:01 PM 29.4975 -95.8333 54° Northeast 292 336 8,700 -984 Descending Houston Center
Fri 07:22:15 PM 29.5086 -95.8156 54° Northeast 294 338 8,400 -1,258 Descending Houston Center
Fri 07:23:03 PM 29.5444 -95.7561 55° Northeast 294 338 7,400 -1,279 Descending Houston Center
Fri 07:23:16 PM 29.5544 -95.7383 57° Northeast 291 335 7,100 -1,355 Descending Houston Center
Fri 07:24:05 PM 29.5881 -95.6817 56° Northeast 287 330 6,000 -1,082 Descending Houston Center
Fri 07:24:17 PM 29.5975 -95.6564 67° East 280 322 6,000 -774 Level Houston Center
Fri 07:25:07 PM 29.6203 -95.6022 64° Northeast 276 318 5,200 -1,180 Descending Houston Center
Fri 07:25:18 PM 29.6300 -95.5758 67° East 279 321 4,800 -1,258 Descending Houston Center
Fri 07:26:09 PM 29.6531 -95.5206 64° Northeast 276 318 3,900 -1,279 Descending Houston Center
Fri 07:26:19 PM 29.6628 -95.4950 66° East 279 321 3,500 -1,839 Descending Houston Center
Fri 07:27:11 PM 29.6917 -95.4256 64° Northeast 276 318 2,000 -835 Descending Houston Center
Fri 07:28:14 PM 29.7147 -95.3631 67° East 229 264 1,900 -432 Descending Houston Center
Fri 07:29:16 PM 29.6889 -95.3303 132° Southeast 171 197 1,100 -811 Descending Houston Center
Fri 07:29:28 PM 29.6806 -95.3222 140° Southeast 134 154 900 -716 Descending Houston Center
Fri 07:30:23 PM 29.6567 -95.2914 132° Southeast 141 162 300 -429 Descending Houston Center
Fri 07:31:20 PM 29.6358 -95.2669 134° Southeast 147 169 100 -211 Descending Houston Center

Login

Don't have an account? Register now (free) for customized features, flight alerts, and more!